sensor_id;sensor_type;location;lat;lon;timestamp;temperature;humidity
66102;HTU21D;52883;51.094;5.880;2023-03-21T00:00:35;10.25;118.99
66102;HTU21D;52883;51.094;5.880;2023-03-21T00:03:00;10.28;118.99
66102;HTU21D;52883;51.094;5.880;2023-03-21T00:05:26;10.30;118.99
66102;HTU21D;52883;51.094;5.880;2023-03-21T00:07:52;10.29;118.99
66102;HTU21D;52883;51.094;5.880;2023-03-21T00:10:17;10.30;118.99
66102;HTU21D;52883;51.094;5.880;2023-03-21T00:12:43;10.31;118.99
66102;HTU21D;52883;51.094;5.880;2023-03-21T00:15:10;10.33;118.99
66102;HTU21D;52883;51.094;5.880;2023-03-21T00:17:37;10.35;118.99
66102;HTU21D;52883;51.094;5.880;2023-03-21T00:20:06;10.30;118.99
66102;HTU21D;52883;51.094;5.880;2023-03-21T00:22:40;10.30;118.99
66102;HTU21D;52883;51.094;5.880;2023-03-21T00:25:07;10.31;118.99
66102;HTU21D;52883;51.094;5.880;2023-03-21T00:27:33;10.31;118.99
66102;HTU21D;52883;51.094;5.880;2023-03-21T00:29:59;10.33;118.99
66102;HTU21D;52883;51.094;5.880;2023-03-21T00:32:25;10.30;118.99
66102;HTU21D;52883;51.094;5.880;2023-03-21T00:34:50;10.29;118.99
66102;HTU21D;52883;51.094;5.880;2023-03-21T00:37:17;10.24;118.99
66102;HTU21D;52883;51.094;5.880;2023-03-21T00:39:45;10.18;118.99
66102;HTU21D;52883;51.094;5.880;2023-03-21T00:42:14;10.16;118.99
66102;HTU21D;52883;51.094;5.880;2023-03-21T00:44:40;10.16;118.99
66102;HTU21D;52883;51.094;5.880;2023-03-21T00:47:08;10.19;118.99
66102;HTU21D;52883;51.094;5.880;2023-03-21T00:49:35;10.18;118.99
66102;HTU21D;52883;51.094;5.880;2023-03-21T00:52:05;10.06;118.99
66102;HTU21D;52883;51.094;5.880;2023-03-21T00:54:32;9.90;118.99
66102;HTU21D;52883;51.094;5.880;2023-03-21T00:56:58;9.69;118.99
66102;HTU21D;52883;51.094;5.880;2023-03-21T00:59:23;9.51;118.99
66102;HTU21D;52883;51.094;5.880;2023-03-21T01:01:49;9.39;118.99
66102;HTU21D;52883;51.094;5.880;2023-03-21T01:04:18;9.29;118.99
66102;HTU21D;52883;51.094;5.880;2023-03-21T01:06:46;9.21;118.99
66102;HTU21D;52883;51.094;5.880;2023-03-21T01:09:15;9.16;118.99
66102;HTU21D;52883;51.094;5.880;2023-03-21T01:11:41;9.08;118.99
66102;HTU21D;52883;51.094;5.880;2023-03-21T01:14:10;9.01;118.99
66102;HTU21D;52883;51.094;5.880;2023-03-21T01:16:37;8.92;118.99
66102;HTU21D;52883;51.094;5.880;2023-03-21T01:19:04;8.82;118.99
66102;HTU21D;52883;51.094;5.880;2023-03-21T01:21:30;8.68;118.99
66102;HTU21D;52883;51.094;5.880;2023-03-21T01:23:56;8.57;118.99
66102;HTU21D;52883;51.094;5.880;2023-03-21T01:26:21;8.49;118.99
66102;HTU21D;52883;51.094;5.880;2023-03-21T01:28:47;8.46;118.99
66102;HTU21D;52883;51.094;5.880;2023-03-21T01:31:15;8.46;118.99
66102;HTU21D;52883;51.094;5.880;2023-03-21T01:33:41;8.43;118.99
66102;HTU21D;52883;51.094;5.880;2023-03-21T01:36:16;8.41;118.99
66102;HTU21D;52883;51.094;5.880;2023-03-21T01:38:43;8.45;118.99
66102;HTU21D;52883;51.094;5.880;2023-03-21T01:43:46;8.56;118.99
66102;HTU21D;52883;51.094;5.880;2023-03-21T01:46:24;8.67;118.99
66102;HTU21D;52883;51.094;5.880;2023-03-21T01:49:09;8.81;118.99
66102;HTU21D;52883;51.094;5.880;2023-03-21T01:51:52;8.91;118.99
66102;HTU21D;52883;51.094;5.880;2023-03-21T01:54:29;9.01;118.99
66102;HTU21D;52883;51.094;5.880;2023-03-21T01:57:00;9.07;118.99
66102;HTU21D;52883;51.094;5.880;2023-03-21T01:59:46;9.12;118.99
66102;HTU21D;52883;51.094;5.880;2023-03-21T02:02:47;9.22;118.99
66102;HTU21D;52883;51.094;5.880;2023-03-21T02:08:22;9.46;118.99
66102;HTU21D;52883;51.094;5.880;2023-03-21T02:10:50;9.53;118.99
66102;HTU21D;52883;51.094;5.880;2023-03-21T02:13:26;9.60;118.99
66102;HTU21D;52883;51.094;5.880;2023-03-21T02:16:00;9.66;118.99
66102;HTU21D;52883;51.094;5.880;2023-03-21T02:27:15;9.75;118.99
66102;HTU21D;52883;51.094;5.880;2023-03-21T02:37:56;9.82;118.99
66102;HTU21D;52883;51.094;5.880;2023-03-21T02:45:45;9.90;118.99
66102;HTU21D;52883;51.094;5.880;2023-03-21T02:48:18;9.92;118.99
66102;HTU21D;52883;51.094;5.880;2023-03-21T02:50:53;9.92;118.99
66102;HTU21D;52883;51.094;5.880;2023-03-21T02:53:23;9.88;118.99
66102;HTU21D;52883;51.094;5.880;2023-03-21T02:55:52;9.81;118.99
66102;HTU21D;52883;51.094;5.880;2023-03-21T02:58:23;9.74;118.99
66102;HTU21D;52883;51.094;5.880;2023-03-21T03:00:54;9.67;118.99
66102;HTU21D;52883;51.094;5.880;2023-03-21T03:03:36;9.57;118.99
66102;HTU21D;52883;51.094;5.880;2023-03-21T03:06:15;9.51;118.99
66102;HTU21D;52883;51.094;5.880;2023-03-21T03:08:51;9.46;118.99
66102;HTU21D;52883;51.094;5.880;2023-03-21T03:14:05;9.32;118.99
66102;HTU21D;52883;51.094;5.880;2023-03-21T03:16:46;9.25;118.99
66102;HTU21D;52883;51.094;5.880;2023-03-21T03:19:24;9.19;118.99
66102;HTU21D;52883;51.094;5.880;2023-03-21T03:22:41;9.17;118.99
66102;HTU21D;52883;51.094;5.880;2023-03-21T03:25:04;9.14;118.99
66102;HTU21D;52883;51.094;5.880;2023-03-21T03:27:39;9.12;118.99
66102;HTU21D;52883;51.094;5.880;2023-03-21T03:30:08;9.10;118.99
66102;HTU21D;52883;51.094;5.880;2023-03-21T03:32:45;9.07;118.99
66102;HTU21D;52883;51.094;5.880;2023-03-21T03:35:15;9.03;118.99
66102;HTU21D;52883;51.094;5.880;2023-03-21T03:37:47;9.00;118.99
66102;HTU21D;52883;51.094;5.880;2023-03-21T03:40:25;8.96;118.99
66102;HTU21D;52883;51.094;5.880;2023-03-21T03:43:13;8.96;118.99
66102;HTU21D;52883;51.094;5.880;2023-03-21T03:45:50;8.96;118.99
66102;HTU21D;52883;51.094;5.880;2023-03-21T03:48:25;8.96;118.99
66102;HTU21D;52883;51.094;5.880;2023-03-21T03:51:03;8.96;118.99
66102;HTU21D;52883;51.094;5.880;2023-03-21T03:53:54;8.97;118.99
66102;HTU21D;52883;51.094;5.880;2023-03-21T03:56:25;8.98;118.99
66102;HTU21D;52883;51.094;5.880;2023-03-21T03:58:52;9.04;118.99
66102;HTU21D;52883;51.094;5.880;2023-03-21T04:01:22;9.04;118.99
66102;HTU21D;52883;51.094;5.880;2023-03-21T04:03:48;9.05;118.99
66102;HTU21D;52883;51.094;5.880;2023-03-21T04:06:14;9.06;118.99
66102;HTU21D;52883;51.094;5.880;2023-03-21T04:08:41;9.11;118.99
66102;HTU21D;52883;51.094;5.880;2023-03-21T04:11:09;9.15;118.99
66102;HTU21D;52883;51.094;5.880;2023-03-21T04:13:36;9.14;118.99
66102;HTU21D;52883;51.094;5.880;2023-03-21T04:16:08;9.14;118.99
66102;HTU21D;52883;51.094;5.880;2023-03-21T04:18:34;9.15;118.99
66102;HTU21D;52883;51.094;5.880;2023-03-21T04:21:00;9.16;118.99
66102;HTU21D;52883;51.094;5.880;2023-03-21T04:23:28;9.16;118.99
66102;HTU21D;52883;51.094;5.880;2023-03-21T04:25:54;9.16;118.99
66102;HTU21D;52883;51.094;5.880;2023-03-21T04:28:20;9.18;118.99
66102;HTU21D;52883;51.094;5.880;2023-03-21T04:31:01;9.19;118.99
66102;HTU21D;52883;51.094;5.880;2023-03-21T04:33:29;9.23;118.99
66102;HTU21D;52883;51.094;5.880;2023-03-21T04:35:55;9.24;118.99
66102;HTU21D;52883;51.094;5.880;2023-03-21T04:38:25;9.25;118.99
66102;HTU21D;52883;51.094;5.880;2023-03-21T04:40:56;9.25;118.99
66102;HTU21D;52883;51.094;5.880;2023-03-21T04:43:22;9.26;118.99
66102;HTU21D;52883;51.094;5.880;2023-03-21T04:45:49;9.26;118.99
66102;HTU21D;52883;51.094;5.880;2023-03-21T04:48:15;9.31;118.99
66102;HTU21D;52883;51.094;5.880;2023-03-21T04:50:44;9.31;118.99
66102;HTU21D;52883;51.094;5.880;2023-03-21T04:53:11;9.31;118.99
66102;HTU21D;52883;51.094;5.880;2023-03-21T04:55:36;9.34;118.99
66102;HTU21D;52883;51.094;5.880;2023-03-21T04:58:03;9.34;118.99
66102;HTU21D;52883;51.094;5.880;2023-03-21T05:00:29;9.36;118.99
66102;HTU21D;52883;51.094;5.880;2023-03-21T05:02:56;9.31;118.99
66102;HTU21D;52883;51.094;5.880;2023-03-21T05:05:23;9.30;118.99
66102;HTU21D;52883;51.094;5.880;2023-03-21T05:07:50;9.31;118.99
66102;HTU21D;52883;51.094;5.880;2023-03-21T05:10:16;9.27;118.99
66102;HTU21D;52883;51.094;5.880;2023-03-21T05:12:42;9.29;118.99
66102;HTU21D;52883;51.094;5.880;2023-03-21T05:15:08;9.30;118.99
66102;HTU21D;52883;51.094;5.880;2023-03-21T05:17:35;9.30;118.99
66102;HTU21D;52883;51.094;5.880;2023-03-21T05:20:01;9.32;118.99
66102;HTU21D;52883;51.094;5.880;2023-03-21T05:22:29;9.31;118.99
66102;HTU21D;52883;51.094;5.880;2023-03-21T05:25:07;9.34;118.99
66102;HTU21D;52883;51.094;5.880;2023-03-21T05:27:53;9.36;118.99
66102;HTU21D;52883;51.094;5.880;2023-03-21T05:30:23;9.37;118.99
66102;HTU21D;52883;51.094;5.880;2023-03-21T05:32:50;9.38;118.99
66102;HTU21D;52883;51.094;5.880;2023-03-21T05:35:17;9.39;118.99
66102;HTU21D;52883;51.094;5.880;2023-03-21T05:37:43;9.41;118.99
66102;HTU21D;52883;51.094;5.880;2023-03-21T05:40:10;9.44;118.99
66102;HTU21D;52883;51.094;5.880;2023-03-21T05:42:40;9.44;118.99
66102;HTU21D;52883;51.094;5.880;2023-03-21T05:45:15;9.46;118.99
66102;HTU21D;52883;51.094;5.880;2023-03-21T05:47:41;9.48;118.99
66102;HTU21D;52883;51.094;5.880;2023-03-21T05:50:08;9.48;118.99
66102;HTU21D;52883;51.094;5.880;2023-03-21T05:52:34;9.47;118.99
66102;HTU21D;52883;51.094;5.880;2023-03-21T05:55:08;9.48;118.99
66102;HTU21D;52883;51.094;5.880;2023-03-21T05:57:33;9.50;118.99
66102;HTU21D;52883;51.094;5.880;2023-03-21T06:00:06;9.51;118.99
66102;HTU21D;52883;51.094;5.880;2023-03-21T06:02:40;9.53;118.99
66102;HTU21D;52883;51.094;5.880;2023-03-21T06:05:13;9.48;118.99
66102;HTU21D;52883;51.094;5.880;2023-03-21T06:07:38;9.51;118.99
66102;HTU21D;52883;51.094;5.880;2023-03-21T06:10:05;9.56;118.99
66102;HTU21D;52883;51.094;5.880;2023-03-21T06:12:31;9.53;118.99
66102;HTU21D;52883;51.094;5.880;2023-03-21T06:15:05;9.56;118.99
66102;HTU21D;52883;51.094;5.880;2023-03-21T06:17:37;9.57;118.99
66102;HTU21D;52883;51.094;5.880;2023-03-21T06:20:07;9.60;118.99
66102;HTU21D;52883;51.094;5.880;2023-03-21T06:22:41;9.65;118.99
66102;HTU21D;52883;51.094;5.880;2023-03-21T06:25:07;9.67;118.99
66102;HTU21D;52883;51.094;5.880;2023-03-21T06:27:34;9.70;118.99
66102;HTU21D;52883;51.094;5.880;2023-03-21T06:29:59;9.74;118.99
66102;HTU21D;52883;51.094;5.880;2023-03-21T06:32:28;9.78;118.99
66102;HTU21D;52883;51.094;5.880;2023-03-21T06:34:58;9.82;118.99
66102;HTU21D;52883;51.094;5.880;2023-03-21T06:37:24;9.86;118.99
66102;HTU21D;52883;51.094;5.880;2023-03-21T06:39:51;9.91;118.99
66102;HTU21D;52883;51.094;5.880;2023-03-21T06:42:19;9.91;118.99
66102;HTU21D;52883;51.094;5.880;2023-03-21T06:44:45;9.91;118.99
66102;HTU21D;52883;51.094;5.880;2023-03-21T06:47:13;9.89;118.99
66102;HTU21D;52883;51.094;5.880;2023-03-21T06:49:40;9.92;118.99
66102;HTU21D;52883;51.094;5.880;2023-03-21T06:52:09;9.93;118.99
66102;HTU21D;52883;51.094;5.880;2023-03-21T06:54:36;9.96;118.99
66102;HTU21D;52883;51.094;5.880;2023-03-21T06:57:08;9.94;118.99
66102;HTU21D;52883;51.094;5.880;2023-03-21T06:59:35;10.01;118.99
66102;HTU21D;52883;51.094;5.880;2023-03-21T07:02:09;10.04;118.99
66102;HTU21D;52883;51.094;5.880;2023-03-21T07:04:40;10.13;118.99
66102;HTU21D;52883;51.094;5.880;2023-03-21T07:07:10;10.12;118.99
66102;HTU21D;52883;51.094;5.880;2023-03-21T07:09:36;10.16;118.99
66102;HTU21D;52883;51.094;5.880;2023-03-21T07:12:04;10.09;118.99
66102;HTU21D;52883;51.094;5.880;2023-03-21T07:14:48;10.11;118.99
66102;HTU21D;52883;51.094;5.880;2023-03-21T07:17:13;10.10;118.99
66102;HTU21D;52883;51.094;5.880;2023-03-21T07:19:39;10.10;118.99
66102;HTU21D;52883;51.094;5.880;2023-03-21T07:22:04;10.07;118.99
66102;HTU21D;52883;51.094;5.880;2023-03-21T07:24:30;10.12;118.99
66102;HTU21D;52883;51.094;5.880;2023-03-21T07:26:55;10.16;118.99
66102;HTU21D;52883;51.094;5.880;2023-03-21T07:29:21;10.16;118.99
66102;HTU21D;52883;51.094;5.880;2023-03-21T07:31:48;10.19;118.99
66102;HTU21D;52883;51.094;5.880;2023-03-21T07:34:14;10.26;118.99
66102;HTU21D;52883;51.094;5.880;2023-03-21T07:36:41;10.29;118.99
66102;HTU21D;52883;51.094;5.880;2023-03-21T07:39:07;10.38;118.99
66102;HTU21D;52883;51.094;5.880;2023-03-21T07:41:32;10.43;118.99
66102;HTU21D;52883;51.094;5.880;2023-03-21T07:44:10;10.52;118.99
66102;HTU21D;52883;51.094;5.880;2023-03-21T07:46:35;10.62;118.99
66102;HTU21D;52883;51.094;5.880;2023-03-21T07:49:01;10.68;118.99
66102;HTU21D;52883;51.094;5.880;2023-03-21T07:51:28;10.75;118.99
66102;HTU21D;52883;51.094;5.880;2023-03-21T07:53:53;10.83;118.99
66102;HTU21D;52883;51.094;5.880;2023-03-21T07:56:19;10.92;118.99
66102;HTU21D;52883;51.094;5.880;2023-03-21T07:58:46;11.00;118.99
66102;HTU21D;52883;51.094;5.880;2023-03-21T08:01:11;11.05;118.99
66102;HTU21D;52883;51.094;5.880;2023-03-21T08:03:37;11.12;118.99
66102;HTU21D;52883;51.094;5.880;2023-03-21T08:06:03;11.17;118.99
66102;HTU21D;52883;51.094;5.880;2023-03-21T08:08:28;11.19;118.99
66102;HTU21D;52883;51.094;5.880;2023-03-21T08:10:54;11.23;118.99
66102;HTU21D;52883;51.094;5.880;2023-03-21T08:13:20;11.28;118.99
66102;HTU21D;52883;51.094;5.880;2023-03-21T08:15:45;11.28;118.99
66102;HTU21D;52883;51.094;5.880;2023-03-21T08:18:11;11.30;118.99
66102;HTU21D;52883;51.094;5.880;2023-03-21T08:20:37;11.22;118.99
66102;HTU21D;52883;51.094;5.880;2023-03-21T08:23:03;11.19;118.99
66102;HTU21D;52883;51.094;5.880;2023-03-21T08:25:28;11.15;118.99
66102;HTU21D;52883;51.094;5.880;2023-03-21T08:27:55;11.16;118.99
66102;HTU21D;52883;51.094;5.880;2023-03-21T08:30:22;11.17;118.99
66102;HTU21D;52883;51.094;5.880;2023-03-21T08:32:49;11.18;118.99
66102;HTU21D;52883;51.094;5.880;2023-03-21T08:35:16;11.23;118.99
66102;HTU21D;52883;51.094;5.880;2023-03-21T08:37:43;11.30;118.99
66102;HTU21D;52883;51.094;5.880;2023-03-21T08:40:18;11.36;118.99
66102;HTU21D;52883;51.094;5.880;2023-03-21T08:42:45;11.42;118.99
66102;HTU21D;52883;51.094;5.880;2023-03-21T08:45:13;11.41;118.99
66102;HTU21D;52883;51.094;5.880;2023-03-21T08:47:39;11.31;118.99
66102;HTU21D;52883;51.094;5.880;2023-03-21T08:50:07;11.24;118.99
66102;HTU21D;52883;51.094;5.880;2023-03-21T08:52:32;11.22;118.99
66102;HTU21D;52883;51.094;5.880;2023-03-21T08:54:58;11.16;118.99
66102;HTU21D;52883;51.094;5.880;2023-03-21T08:57:24;11.05;118.99
66102;HTU21D;52883;51.094;5.880;2023-03-21T08:59:49;10.97;118.99
66102;HTU21D;52883;51.094;5.880;2023-03-21T09:02:16;10.95;118.99
66102;HTU21D;52883;51.094;5.880;2023-03-21T09:04:45;10.78;118.99
66102;HTU21D;52883;51.094;5.880;2023-03-21T09:07:12;10.68;118.99
66102;HTU21D;52883;51.094;5.880;2023-03-21T09:09:40;10.59;118.99
66102;HTU21D;52883;51.094;5.880;2023-03-21T09:12:06;10.56;118.99
66102;HTU21D;52883;51.094;5.880;2023-03-21T09:14:32;10.54;118.99
66102;HTU21D;52883;51.094;5.880;2023-03-21T09:16:59;10.57;118.99
66102;HTU21D;52883;51.094;5.880;2023-03-21T09:19:25;10.66;118.99
66102;HTU21D;52883;51.094;5.880;2023-03-21T09:21:50;10.68;118.99
66102;HTU21D;52883;51.094;5.880;2023-03-21T09:24:18;10.72;118.99
66102;HTU21D;52883;51.094;5.880;2023-03-21T09:26:45;10.83;118.99
66102;HTU21D;52883;51.094;5.880;2023-03-21T09:29:11;10.88;118.99
66102;HTU21D;52883;51.094;5.880;2023-03-21T09:31:37;10.97;118.99
66102;HTU21D;52883;51.094;5.880;2023-03-21T09:34:04;11.03;118.99
66102;HTU21D;52883;51.094;5.880;2023-03-21T09:36:30;11.20;118.99
66102;HTU21D;52883;51.094;5.880;2023-03-21T09:38:56;11.48;118.99
66102;HTU21D;52883;51.094;5.880;2023-03-21T09:42:05;11.78;118.99
66102;HTU21D;52883;51.094;5.880;2023-03-21T09:44:46;12.06;118.99
66102;HTU21D;52883;51.094;5.880;2023-03-21T09:47:25;12.35;118.99
66102;HTU21D;52883;51.094;5.880;2023-03-21T09:50:13;12.57;118.99
66102;HTU21D;52883;51.094;5.880;2023-03-21T09:52:57;12.63;118.99
66102;HTU21D;52883;51.094;5.880;2023-03-21T09:55:28;12.70;118.99
66102;HTU21D;52883;51.094;5.880;2023-03-21T09:58:23;12.70;118.99
66102;HTU21D;52883;51.094;5.880;2023-03-21T10:01:17;12.79;118.99
66102;HTU21D;52883;51.094;5.880;2023-03-21T10:04:09;12.84;118.99
66102;HTU21D;52883;51.094;5.880;2023-03-21T10:06:39;12.96;118.99
66102;HTU21D;52883;51.094;5.880;2023-03-21T10:09:18;13.03;118.99
66102;HTU21D;52883;51.094;5.880;2023-03-21T10:12:05;13.10;118.99
66102;HTU21D;52883;51.094;5.880;2023-03-21T10:14:45;13.31;118.99
66102;HTU21D;52883;51.094;5.880;2023-03-21T10:17:28;13.30;118.99
66102;HTU21D;52883;51.094;5.880;2023-03-21T10:22:40;13.23;118.99
66102;HTU21D;52883;51.094;5.880;2023-03-21T10:25:07;13.19;118.99
66102;HTU21D;52883;51.094;5.880;2023-03-21T10:27:35;13.21;118.99
66102;HTU21D;52883;51.094;5.880;2023-03-21T10:30:03;13.16;118.99
66102;HTU21D;52883;51.094;5.880;2023-03-21T10:32:33;13.10;118.99
66102;HTU21D;52883;51.094;5.880;2023-03-21T10:35:00;13.14;118.99
66102;HTU21D;52883;51.094;5.880;2023-03-21T10:37:28;13.22;118.99
66102;HTU21D;52883;51.094;5.880;2023-03-21T10:39:54;13.27;118.99
66102;HTU21D;52883;51.094;5.880;2023-03-21T10:42:28;13.26;118.99
66102;HTU21D;52883;51.094;5.880;2023-03-21T10:44:56;13.45;118.99
66102;HTU21D;52883;51.094;5.880;2023-03-21T10:47:28;13.59;118.99
66102;HTU21D;52883;51.094;5.880;2023-03-21T10:49:54;13.70;118.99
66102;HTU21D;52883;51.094;5.880;2023-03-21T10:52:22;13.74;118.99
66102;HTU21D;52883;51.094;5.880;2023-03-21T10:57:34;13.77;118.99
66102;HTU21D;52883;51.094;5.880;2023-03-21T11:00:04;13.75;118.99
66102;HTU21D;52883;51.094;5.880;2023-03-21T11:02:40;13.78;118.99
66102;HTU21D;52883;51.094;5.880;2023-03-21T11:07:43;13.93;118.99
66102;HTU21D;52883;51.094;5.880;2023-03-21T11:10:24;13.95;118.99
66102;HTU21D;52883;51.094;5.880;2023-03-21T11:12:55;14.05;118.99
66102;HTU21D;52883;51.094;5.880;2023-03-21T11:17:53;14.42;118.99
66102;HTU21D;52883;51.094;5.880;2023-03-21T11:20:20;14.52;118.99
66102;HTU21D;52883;51.094;5.880;2023-03-21T11:22:47;14.37;118.99
66102;HTU21D;52883;51.094;5.880;2023-03-21T11:25:31;14.34;118.99
66102;HTU21D;52883;51.094;5.880;2023-03-21T11:28:05;14.13;118.99
66102;HTU21D;52883;51.094;5.880;2023-03-21T11:30:31;14.14;118.99
66102;HTU21D;52883;51.094;5.880;2023-03-21T11:33:01;14.34;118.99
66102;HTU21D;52883;51.094;5.880;2023-03-21T11:35:36;14.47;118.99
66102;HTU21D;52883;51.094;5.880;2023-03-21T11:38:04;14.75;118.99
66102;HTU21D;52883;51.094;5.880;2023-03-21T11:40:35;15.11;118.99
66102;HTU21D;52883;51.094;5.880;2023-03-21T11:43:26;15.37;118.99
66102;HTU21D;52883;51.094;5.880;2023-03-21T11:46:22;15.73;118.99
66102;HTU21D;52883;51.094;5.880;2023-03-21T11:48:48;15.85;118.99
66102;HTU21D;52883;51.094;5.880;2023-03-21T11:51:28;15.80;118.99
66102;HTU21D;52883;51.094;5.880;2023-03-21T11:56:31;16.13;118.99
66102;HTU21D;52883;51.094;5.880;2023-03-21T11:59:19;16.12;118.99
66102;HTU21D;52883;51.094;5.880;2023-03-21T12:05:04;16.21;118.99
66102;HTU21D;52883;51.094;5.880;2023-03-21T12:07:41;16.48;118.99
66102;HTU21D;52883;51.094;5.880;2023-03-21T12:10:23;16.72;118.99
66102;HTU21D;52883;51.094;5.880;2023-03-21T12:19:01;17.53;118.99
66102;HTU21D;52883;51.094;5.880;2023-03-21T12:24:57;18.29;118.99
66102;HTU21D;52883;51.094;5.880;2023-03-21T12:28:11;18.41;114.23
66102;HTU21D;52883;51.094;5.880;2023-03-21T12:39:23;18.71;98.07
66102;HTU21D;52883;51.094;5.880;2023-03-21T12:44:26;18.64;101.67
66102;HTU21D;52883;51.094;5.880;2023-03-21T12:47:14;18.48;102.79
66102;HTU21D;52883;51.094;5.880;2023-03-21T12:52:26;18.33;99.19
66102;HTU21D;52883;51.094;5.880;2023-03-21T12:55:15;18.19;98.63
66102;HTU21D;52883;51.094;5.880;2023-03-21T12:57:47;18.18;96.70
66102;HTU21D;52883;51.094;5.880;2023-03-21T13:03:41;18.66;103.70
66102;HTU21D;52883;51.094;5.880;2023-03-21T13:06:12;18.99;103.24
66102;HTU21D;52883;51.094;5.880;2023-03-21T13:11:28;18.93;92.44
66102;HTU21D;52883;51.094;5.880;2023-03-21T13:14:00;18.68;98.71
66102;HTU21D;52883;51.094;5.880;2023-03-21T13:19:37;19.22;96.42
66102;HTU21D;52883;51.094;5.880;2023-03-21T13:24:46;19.72;95.39
66102;HTU21D;52883;51.094;5.880;2023-03-21T13:27:29;19.71;88.51
66102;HTU21D;52883;51.094;5.880;2023-03-21T13:30:03;19.48;92.25
66102;HTU21D;52883;51.094;5.880;2023-03-21T13:32:37;19.20;88.66
66102;HTU21D;52883;51.094;5.880;2023-03-21T13:35:19;18.99;95.30
66102;HTU21D;52883;51.094;5.880;2023-03-21T13:38:02;18.86;81.62
66102;HTU21D;52883;51.094;5.880;2023-03-21T13:40:58;18.65;90.25
66102;HTU21D;52883;51.094;5.880;2023-03-21T13:43:52;18.72;90.25
66102;HTU21D;52883;51.094;5.880;2023-03-21T13:56:52;18.91;83.94
66102;HTU21D;52883;51.094;5.880;2023-03-21T13:59:34;19.13;89.81
66102;HTU21D;52883;51.094;5.880;2023-03-21T14:02:28;19.30;84.15
66102;HTU21D;52883;51.094;5.880;2023-03-21T14:04:59;19.42;91.55
66102;HTU21D;52883;51.094;5.880;2023-03-21T14:07:29;19.65;84.93
66102;HTU21D;52883;51.094;5.880;2023-03-21T14:10:03;19.81;89.56
66102;HTU21D;52883;51.094;5.880;2023-03-21T14:12:38;19.87;85.09
66102;HTU21D;52883;51.094;5.880;2023-03-21T14:17:34;19.51;87.89
66102;HTU21D;52883;51.094;5.880;2023-03-21T14:20:12;19.10;87.04
66102;HTU21D;52883;51.094;5.880;2023-03-21T14:22:39;18.82;83.52
66102;HTU21D;52883;51.094;5.880;2023-03-21T14:25:11;18.40;81.07
66102;HTU21D;52883;51.094;5.880;2023-03-21T14:27:44;18.00;94.07
66102;HTU21D;52883;51.094;5.880;2023-03-21T14:30:26;17.93;95.02
66102;HTU21D;52883;51.094;5.880;2023-03-21T14:33:02;18.24;95.26
66102;HTU21D;52883;51.094;5.880;2023-03-21T14:35:31;18.61;88.34
66102;HTU21D;52883;51.094;5.880;2023-03-21T14:38:06;18.63;84.32
66102;HTU21D;52883;51.094;5.880;2023-03-21T14:40:34;18.92;90.15
66102;HTU21D;52883;51.094;5.880;2023-03-21T14:43:04;19.33;75.76
66102;HTU21D;52883;51.094;5.880;2023-03-21T14:45:34;19.30;80.46
66102;HTU21D;52883;51.094;5.880;2023-03-21T14:48:09;19.05;85.70
66102;HTU21D;52883;51.094;5.880;2023-03-21T14:50:49;18.80;83.14
66102;HTU21D;52883;51.094;5.880;2023-03-21T14:53:24;18.43;82.63
66102;HTU21D;52883;51.094;5.880;2023-03-21T14:56:18;18.26;89.53
66102;HTU21D;52883;51.094;5.880;2023-03-21T14:58:47;18.40;88.14
66102;HTU21D;52883;51.094;5.880;2023-03-21T15:01:24;18.39;85.10
66102;HTU21D;52883;51.094;5.880;2023-03-21T15:03:51;18.32;85.38
66102;HTU21D;52883;51.094;5.880;2023-03-21T15:06:18;18.36;84.17
66102;HTU21D;52883;51.094;5.880;2023-03-21T15:08:58;18.42;87.16
66102;HTU21D;52883;51.094;5.880;2023-03-21T15:11:36;18.54;91.08
66102;HTU21D;52883;51.094;5.880;2023-03-21T15:14:10;18.58;86.76
66102;HTU21D;52883;51.094;5.880;2023-03-21T15:16:38;18.20;86.76
66102;HTU21D;52883;51.094;5.880;2023-03-21T15:19:04;17.91;80.62
66102;HTU21D;52883;51.094;5.880;2023-03-21T15:21:36;17.65;89.25
66102;HTU21D;52883;51.094;5.880;2023-03-21T15:24:35;17.38;93.94
66102;HTU21D;52883;51.094;5.880;2023-03-21T15:27:06;17.19;98.28
66102;HTU21D;52883;51.094;5.880;2023-03-21T15:29:33;17.14;98.42
66102;HTU21D;52883;51.094;5.880;2023-03-21T15:32:10;17.08;100.09
66102;HTU21D;52883;51.094;5.880;2023-03-21T15:34:37;17.06;104.10
66102;HTU21D;52883;51.094;5.880;2023-03-21T15:37:07;17.01;107.82
66102;HTU21D;52883;51.094;5.880;2023-03-21T15:39:34;17.09;107.86
66102;HTU21D;52883;51.094;5.880;2023-03-21T15:42:04;17.15;102.49
66102;HTU21D;52883;51.094;5.880;2023-03-21T15:44:32;17.15;105.04
66102;HTU21D;52883;51.094;5.880;2023-03-21T15:46:59;17.15;107.01
66102;HTU21D;52883;51.094;5.880;2023-03-21T15:49:30;17.14;107.62
66102;HTU21D;52883;51.094;5.880;2023-03-21T15:52:06;17.04;108.79
66102;HTU21D;52883;51.094;5.880;2023-03-21T15:54:44;16.93;111.87
66102;HTU21D;52883;51.094;5.880;2023-03-21T15:57:20;16.90;112.48
66102;HTU21D;52883;51.094;5.880;2023-03-21T15:59:47;16.84;109.10
66102;HTU21D;52883;51.094;5.880;2023-03-21T16:02:16;16.78;109.59
66102;HTU21D;52883;51.094;5.880;2023-03-21T16:10:42;16.63;112.79
66102;HTU21D;52883;51.094;5.880;2023-03-21T16:13:11;16.51;112.87
66102;HTU21D;52883;51.094;5.880;2023-03-21T16:15:40;16.41;115.25
66102;HTU21D;52883;51.094;5.880;2023-03-21T16:18:06;16.34;115.83
66102;HTU21D;52883;51.094;5.880;2023-03-21T16:20:39;16.27;118.30
66102;HTU21D;52883;51.094;5.880;2023-03-21T16:23:06;16.20;116.83
66102;HTU21D;52883;51.094;5.880;2023-03-21T16:25:33;16.06;118.99
66102;HTU21D;52883;51.094;5.880;2023-03-21T16:27:59;15.92;118.99
66102;HTU21D;52883;51.094;5.880;2023-03-21T16:30:25;15.83;118.99
66102;HTU21D;52883;51.094;5.880;2023-03-21T16:32:52;15.72;118.99
66102;HTU21D;52883;51.094;5.880;2023-03-21T16:35:18;15.65;118.99
66102;HTU21D;52883;51.094;5.880;2023-03-21T16:37:44;15.60;118.99
66102;HTU21D;52883;51.094;5.880;2023-03-21T16:42:47;15.54;118.99
66102;HTU21D;52883;51.094;5.880;2023-03-21T16:45:13;15.52;118.99
66102;HTU21D;52883;51.094;5.880;2023-03-21T16:47:38;15.49;118.99
66102;HTU21D;52883;51.094;5.880;2023-03-21T16:50:20;15.46;118.99
66102;HTU21D;52883;51.094;5.880;2023-03-21T16:52:46;15.40;118.99
66102;HTU21D;52883;51.094;5.880;2023-03-21T16:55:12;15.37;118.99
66102;HTU21D;52883;51.094;5.880;2023-03-21T16:57:38;15.34;118.99
66102;HTU21D;52883;51.094;5.880;2023-03-21T17:00:04;15.30;118.99
66102;HTU21D;52883;51.094;5.880;2023-03-21T17:02:31;15.29;118.99
66102;HTU21D;52883;51.094;5.880;2023-03-21T17:04:57;15.26;118.99
66102;HTU21D;52883;51.094;5.880;2023-03-21T17:07:22;15.23;118.99
66102;HTU21D;52883;51.094;5.880;2023-03-21T17:09:48;15.21;118.99
66102;HTU21D;52883;51.094;5.880;2023-03-21T17:12:15;15.16;118.99
66102;HTU21D;52883;51.094;5.880;2023-03-21T17:14:42;15.09;118.99